createdAt,value
2024-04-09T00:04:04.457Z,1.40
2024-04-09T00:09:12.895Z,1.52
2024-04-09T00:14:33.975Z,1.92
2024-04-09T00:20:07.034Z,1.88
2024-04-09T00:25:35.519Z,2.28
2024-04-09T00:30:55.960Z,2.40
2024-04-09T00:36:03.282Z,1.80
2024-04-09T00:41:19.456Z,1.75
2024-04-09T00:46:41.377Z,1.70
2024-04-09T00:52:01.605Z,1.88
2024-04-09T00:57:15.803Z,1.65
2024-04-09T01:02:30.182Z,1.67
2024-04-09T01:08:47.758Z,1.52
2024-04-09T01:13:33.868Z,2.67
2024-04-09T01:19:00.090Z,1.48
2024-04-09T01:24:22.804Z,1.55
2024-04-09T01:29:31.755Z,1.75
2024-04-09T01:35:15.671Z,2.05
2024-04-09T01:40:18.138Z,2.13
2024-04-09T01:45:38.560Z,2.42
2024-04-09T01:50:58.721Z,2.20
2024-04-09T01:56:19.112Z,2.03
2024-04-09T02:01:28.853Z,2.13
2024-04-09T02:06:38.968Z,2.28
2024-04-09T02:12:30.436Z,2.20
2024-04-09T02:17:30.520Z,3.20
2024-04-09T02:22:35.203Z,3.53
2024-04-09T02:27:37.646Z,6.38
2024-04-09T02:33:01.516Z,6.80
2024-04-09T02:38:07.169Z,13.30
2024-04-09T02:43:17.424Z,15.45
2024-04-09T02:48:35.631Z,14.15
2024-04-09T02:59:39.947Z,12.98
2024-04-09T03:04:46.293Z,12.45
2024-04-09T03:09:57.385Z,11.57
2024-04-09T03:15:01.355Z,12.45
2024-04-09T03:20:06.608Z,11.80
2024-04-09T03:25:28.781Z,11.93
2024-04-09T03:30:35.095Z,12.00
2024-04-09T03:35:58.927Z,10.65
2024-04-09T03:41:10.563Z,10.23
2024-04-09T03:46:24.949Z,8.13
2024-04-09T03:51:32.356Z,7.32
2024-04-09T03:56:45.803Z,5.82
2024-04-09T04:01:55.315Z,4.82
2024-04-09T04:06:59.022Z,4.93
2024-04-09T04:12:14.111Z,3.97
2024-04-09T04:17:22.092Z,3.75
2024-04-09T04:22:24.601Z,3.35
2024-04-09T04:27:31.739Z,3.30
2024-04-09T04:32:40.966Z,3.63
2024-04-09T04:37:47.296Z,3.90
2024-04-09T04:43:01.707Z,3.70
2024-04-09T04:48:15.621Z,4.30
2024-04-09T04:53:34.142Z,4.60
2024-04-09T04:58:48.701Z,5.15
2024-04-09T05:03:55.474Z,5.35
2024-04-09T05:08:57.639Z,6.28
2024-04-09T05:13:59.647Z,6.28
2024-04-09T05:19:04.002Z,6.72
2024-04-09T05:24:06.316Z,6.47
2024-04-09T05:29:08.370Z,4.95
2024-04-09T05:34:10.475Z,2.50
2024-04-09T05:39:13.985Z,1.90
2024-04-09T05:49:21.770Z,1.43
2024-04-09T05:54:23.904Z,1.35
2024-04-09T05:59:25.945Z,1.20
2024-04-09T06:04:28.212Z,1.05
2024-04-09T06:14:41.237Z,1.55
2024-04-09T06:19:44.511Z,1.30
2024-04-09T06:24:49.680Z,1.00
2024-04-09T06:29:52.374Z,1.00
2024-04-09T06:34:54.777Z,1.00
2024-04-09T06:44:59.154Z,0.80
2024-04-09T06:50:05.776Z,0.80
2024-04-09T06:55:08.596Z,1.10
2024-04-09T07:00:11.322Z,0.88
2024-04-09T07:05:13.428Z,0.80
2024-04-09T07:10:15.463Z,1.13
2024-04-09T07:15:17.642Z,0.88
2024-04-09T07:20:19.715Z,0.90
2024-04-09T07:25:21.853Z,1.10
2024-04-09T07:30:24.166Z,1.17
2024-04-09T07:40:28.282Z,1.40
2024-04-09T07:45:31.183Z,1.65
2024-04-09T07:50:33.358Z,1.23
2024-04-09T07:55:37.125Z,1.35
2024-04-09T08:00:40.740Z,1.35
2024-04-09T08:05:43.973Z,1.10
2024-04-09T08:10:46.862Z,1.10
2024-04-09T08:15:51.807Z,1.00
2024-04-09T08:20:54.155Z,1.08
2024-04-09T08:25:56.469Z,1.08
2024-04-09T08:31:07.290Z,1.00
2024-04-09T08:36:09.685Z,1.05
2024-04-09T08:41:11.858Z,0.80
2024-04-09T08:46:14.739Z,0.70
2024-04-09T08:51:18.394Z,1.00
2024-04-09T08:56:20.910Z,0.95
2024-04-09T09:06:47.992Z,0.55
2024-04-09T09:11:50.407Z,0.85
2024-04-09T09:21:54.602Z,0.80
2024-04-09T09:27:05.595Z,0.73
2024-04-09T09:32:14.307Z,0.60
2024-04-09T09:37:16.524Z,0.80
2024-04-09T09:42:20.260Z,0.77
2024-04-09T09:47:23.839Z,0.63
2024-04-09T09:52:26.011Z,0.70
2024-04-09T09:57:31.724Z,0.63
2024-04-09T10:02:35.393Z,0.60
2024-04-09T10:07:38.126Z,0.80
2024-04-09T10:12:42.338Z,0.70
2024-04-09T10:18:05.326Z,0.57
2024-04-09T10:23:11.290Z,0.98
2024-04-09T10:28:28.672Z,0.60
2024-04-09T10:33:35.108Z,0.85
2024-04-09T10:38:44.155Z,0.90
2024-04-09T10:43:47.895Z,0.77
2024-04-09T10:48:50.405Z,0.80
2024-04-09T10:54:02.035Z,0.93
2024-04-09T10:59:15.383Z,0.83
2024-04-09T11:04:21.003Z,0.65
2024-04-09T11:09:23.504Z,0.63
2024-04-09T11:19:29.484Z,0.73
2024-04-09T11:24:32.048Z,0.60
2024-04-09T11:29:36.300Z,0.38
2024-04-09T11:34:38.708Z,0.60
2024-04-09T11:39:46.955Z,1.00
2024-04-09T11:45:00.612Z,0.90
2024-04-09T11:50:05.629Z,0.98
2024-04-09T11:55:14.303Z,0.60
2024-04-09T12:00:18.096Z,0.68
2024-04-09T12:10:23.794Z,0.85
2024-04-09T12:15:25.933Z,0.80
2024-04-09T12:20:28.242Z,0.73
2024-04-09T12:30:32.408Z,0.83
2024-04-09T12:45:39.968Z,0.82
2024-04-09T12:50:42.292Z,0.80
2024-04-09T13:01:01.704Z,0.95
2024-04-09T13:06:10.806Z,0.80
2024-04-09T13:11:13.229Z,0.73
2024-04-09T13:21:21.213Z,0.50
2024-04-09T13:26:23.639Z,0.77
2024-04-09T13:31:25.795Z,0.63
2024-04-09T13:36:27.994Z,0.55
2024-04-09T13:46:32.588Z,0.50
2024-04-09T13:51:34.620Z,0.47
2024-04-09T13:56:36.897Z,0.40
2024-04-09T14:06:41.465Z,0.50
2024-04-09T14:11:43.664Z,0.75
2024-04-09T14:21:48.006Z,0.73
2024-04-09T14:26:50.261Z,0.68
2024-04-09T14:36:55.281Z,0.57
2024-04-09T14:41:58.092Z,0.77
2024-04-09T14:47:00.295Z,0.60
2024-04-09T14:52:03.117Z,0.52
2024-04-09T14:57:05.632Z,0.57
2024-04-09T15:02:11.882Z,0.60
2024-04-09T15:07:14.015Z,0.73
2024-04-09T15:12:16.284Z,0.88
2024-04-09T15:22:20.512Z,0.30
2024-04-09T15:27:22.824Z,0.68
2024-04-09T15:37:28.200Z,0.75
2024-04-09T15:42:30.321Z,1.00
2024-04-09T15:47:32.696Z,1.23
2024-04-09T15:52:35.342Z,0.90
2024-04-09T15:57:38.028Z,0.95
2024-04-09T16:02:40.895Z,0.90
2024-04-09T16:07:43.308Z,0.70
2024-04-09T16:17:47.978Z,1.00
2024-04-09T16:22:50.796Z,1.15
2024-04-09T16:27:53.018Z,1.30
2024-04-09T16:32:58.119Z,1.20
2024-04-09T16:38:02.310Z,1.38
2024-04-09T16:43:05.463Z,1.20
2024-04-09T16:48:08.591Z,1.00
2024-04-09T16:53:10.869Z,1.38
2024-04-09T16:58:13.326Z,1.65
2024-04-09T17:03:17.424Z,1.60
2024-04-09T17:08:19.783Z,1.60
2024-04-09T17:18:26.236Z,2.00
2024-04-09T17:23:29.141Z,1.73
2024-04-09T17:28:31.753Z,1.73
2024-04-09T17:33:34.293Z,1.65
2024-04-09T17:38:37.858Z,2.00
2024-04-09T17:43:40.724Z,1.80
2024-04-09T17:48:43.734Z,2.63
2024-04-09T17:53:46.101Z,2.78
2024-04-09T18:03:50.415Z,2.07
2024-04-09T18:13:55.307Z,3.25
2024-04-09T18:18:57.660Z,3.10
2024-04-09T18:24:00.923Z,2.97
2024-04-09T18:29:04.887Z,3.40
2024-04-09T18:34:07.728Z,3.10
2024-04-09T18:39:12.096Z,3.42
2024-04-09T18:44:14.417Z,3.33
2024-04-09T19:00:35.915Z,2.60
2024-04-09T19:06:57.859Z,2.67
2024-04-09T19:13:06.235Z,2.95
2024-04-09T19:18:30.158Z,2.90
2024-04-09T19:36:02.695Z,3.60
2024-04-09T19:41:05.935Z,3.33
2024-04-09T19:44:48.311Z,3.45
2024-04-09T19:47:32.101Z,3.03
2024-04-09T19:59:47.065Z,3.70
2024-04-09T20:05:53.433Z,4.38
2024-04-09T20:11:32.249Z,4.15
2024-04-09T20:17:23.905Z,3.55
2024-04-09T20:28:00.228Z,3.85
2024-04-09T20:33:38.575Z,3.40
2024-04-09T20:39:15.052Z,3.60
2024-04-09T20:51:10.615Z,3.53
2024-04-09T20:57:29.811Z,3.28
2024-04-09T21:56:37.998Z,2.92
2024-04-09T22:21:48.997Z,3.08
2024-04-09T22:38:13.099Z,3.28
2024-04-09T22:46:51.892Z,3.13
2024-04-09T22:53:50.554Z,3.95
2024-04-09T23:03:42.289Z,3.25
2024-04-09T23:09:18.105Z,2.75
2024-04-09T23:15:03.504Z,3.17
2024-04-09T23:20:20.035Z,2.92
2024-04-09T23:26:07.415Z,2.83
2024-04-09T23:31:55.008Z,2.78
2024-04-09T23:37:28.519Z,2.60
2024-04-09T23:43:50.954Z,2.70
2024-04-09T23:54:19.079Z,3.22
2024-04-09T23:59:43.815Z,2.72
